This is the latest recevied weather packets stored in our database for station/object CX2SA-13. If no packets are shown the sender has not sent any weather packets the latest 1 day(s).
| Time | Temp. | Humidity | Pressure | Rain* | Wind** | Luminosity | Snow |
|---|---|---|---|---|---|---|---|
| 1778006684 | 31.11° C | 68% | 1008.8 hPa | 0 mm | 2.24 m/s, 292° | - | - |
| 1778005784 | 31.67° C | 68% | 1008.4 hPa | 0 mm | 2.24 m/s, 90° | - | - |
| 1778004885 | 31.11° C | 69% | 1008.8 hPa | 0 mm | 2.24 m/s, 112° | - | - |
| 1778003984 | 30.56° C | 71% | 1008.8 hPa | 0 mm | 1.79 m/s, 45° | - | - |
| 1778003085 | 31.11° C | 69% | 1008.8 hPa | 0 mm | 3.13 m/s, 67° | - | - |
| 1778002186 | 30.56° C | 72% | 1009.1 hPa | 0 mm | 2.24 m/s, 45° | - | - |
| 1778001284 | 30.56° C | 71% | 1009.4 hPa | 0 mm | 4.02 m/s, 90° | - | - |
| 1778000385 | 30.56° C | 71% | 1009.4 hPa | 0 mm | 1.79 m/s, 45° | - | - |
| 1777999484 | 31.11° C | 68% | 1009.4 hPa | 0 mm | 2.24 m/s, 45° | - | - |
| 1777998584 | 30.56° C | 70% | 1010.5 hPa | 0 mm | 2.68 m/s, 360° | - | - |
| 1777997685 | 31.11° C | 69% | 1010.5 hPa | 0 mm | 1.79 m/s, 22° | - | - |
| 1777996784 | 31.11° C | 70% | 1010.5 hPa | 0 mm | 3.13 m/s, 67° | - | - |
| 1777995885 | 30.56° C | 71% | 1010.8 hPa | 0 mm | 1.79 m/s, 22° | - | - |
| 1777994985 | 30° C | 73% | 1011.1 hPa | 0 mm | 0.89 m/s, 67° | - | - |
| 1777994084 | 29.44° C | 74% | 1011.1 hPa | 0 mm | 3.13 m/s, 22° | - | - |
| 1777993185 | 28.89° C | 74% | 1011.1 hPa | 0 mm | 2.24 m/s, 337° | - | - |
| 1777992286 | 28.33° C | 75% | 1011.1 hPa | 0 mm | 2.68 m/s, 67° | - | - |
| 1777991384 | 27.78° C | 78% | 1011.5 hPa | 0 mm | 0.89 m/s, 112° | - | - |
| 1777990485 | 26.11° C | 82% | 1011.5 hPa | 0 mm | 0.89 m/s, 67° | - | - |
| 1777989584 | 25° C | 84% | 1011.5 hPa | 0 mm | 2.24 m/s, 22° | - | - |
| 1777988684 | 25° C | 84% | 1011.5 hPa | 0 mm | 2.24 m/s, 67° | - | - |
| 1777987785 | 26.67° C | 79% | 1011.8 hPa | 0 mm | 3.13 m/s, 45° | - | - |
| 1777986884 | 24.44° C | 86% | 1011.8 hPa | 0 mm | 1.79 m/s, 360° | - | - |
| 1777985985 | 23.89° C | 89% | 1011.5 hPa | 0 mm | 1.79 m/s, 45° | - | - |
| 1777985085 | 22.22° C | 92% | 1011.5 hPa | 0 mm | 2.68 m/s, 45° | - | - |
* Rain since midnight (hover to see other rain measurements)
** Current wind speed in m/s (hover to see current wind gust speed)